sensor_id;sensor_type;location;lat;lon;timestamp;temperature;humidity
51855;DHT22;37895;53.240;6.572;2023-12-20T00:00:38;5.90;99.90
51855;DHT22;37895;53.240;6.572;2023-12-20T00:03:04;5.80;99.90
51855;DHT22;37895;53.240;6.572;2023-12-20T00:05:30;5.80;99.90
51855;DHT22;37895;53.240;6.572;2023-12-20T00:07:57;5.80;99.90
51855;DHT22;37895;53.240;6.572;2023-12-20T00:10:23;5.90;99.90
51855;DHT22;37895;53.240;6.572;2023-12-20T00:12:48;6.10;99.90
51855;DHT22;37895;53.240;6.572;2023-12-20T00:15:14;5.90;99.90
51855;DHT22;37895;53.240;6.572;2023-12-20T00:17:40;5.80;99.90
51855;DHT22;37895;53.240;6.572;2023-12-20T00:20:06;5.90;99.90
51855;DHT22;37895;53.240;6.572;2023-12-20T00:22:32;5.80;99.90
51855;DHT22;37895;53.240;6.572;2023-12-20T00:24:57;5.80;99.90
51855;DHT22;37895;53.240;6.572;2023-12-20T00:27:23;5.80;99.90
51855;DHT22;37895;53.240;6.572;2023-12-20T00:29:49;5.80;99.90
51855;DHT22;37895;53.240;6.572;2023-12-20T00:32:16;5.80;99.90
51855;DHT22;37895;53.240;6.572;2023-12-20T00:34:42;5.80;99.90
51855;DHT22;37895;53.240;6.572;2023-12-20T00:37:08;5.80;99.90
51855;DHT22;37895;53.240;6.572;2023-12-20T00:39:34;5.90;99.90
51855;DHT22;37895;53.240;6.572;2023-12-20T00:41:59;5.90;99.90
51855;DHT22;37895;53.240;6.572;2023-12-20T00:44:25;6.00;99.90
51855;DHT22;37895;53.240;6.572;2023-12-20T00:46:51;6.30;99.90
51855;DHT22;37895;53.240;6.572;2023-12-20T00:49:16;6.40;99.90
51855;DHT22;37895;53.240;6.572;2023-12-20T00:51:42;6.10;99.90
51855;DHT22;37895;53.240;6.572;2023-12-20T00:54:07;6.20;99.90
51855;DHT22;37895;53.240;6.572;2023-12-20T00:56:33;6.20;99.90
51855;DHT22;37895;53.240;6.572;2023-12-20T00:58:59;6.10;99.90
51855;DHT22;37895;53.240;6.572;2023-12-20T01:01:24;6.10;99.90
51855;DHT22;37895;53.240;6.572;2023-12-20T01:03:50;6.10;99.90
51855;DHT22;37895;53.240;6.572;2023-12-20T01:06:16;6.10;99.90
51855;DHT22;37895;53.240;6.572;2023-12-20T01:08:42;6.10;99.90
51855;DHT22;37895;53.240;6.572;2023-12-20T01:11:08;6.20;99.90
51855;DHT22;37895;53.240;6.572;2023-12-20T01:13:33;6.00;99.90
51855;DHT22;37895;53.240;6.572;2023-12-20T01:15:59;6.00;99.90
51855;DHT22;37895;53.240;6.572;2023-12-20T01:18:25;6.00;99.90
51855;DHT22;37895;53.240;6.572;2023-12-20T01:20:50;6.10;99.90
51855;DHT22;37895;53.240;6.572;2023-12-20T01:23:16;6.80;99.90
51855;DHT22;37895;53.240;6.572;2023-12-20T01:25:42;6.10;99.90
51855;DHT22;37895;53.240;6.572;2023-12-20T01:28:08;6.10;99.90
51855;DHT22;37895;53.240;6.572;2023-12-20T01:30:34;6.10;99.90
51855;DHT22;37895;53.240;6.572;2023-12-20T01:33:00;6.20;99.90
51855;DHT22;37895;53.240;6.572;2023-12-20T01:35:26;6.20;99.90
51855;DHT22;37895;53.240;6.572;2023-12-20T01:37:52;6.30;99.90
51855;DHT22;37895;53.240;6.572;2023-12-20T01:40:22;6.40;99.90
51855;DHT22;37895;53.240;6.572;2023-12-20T01:42:57;6.40;99.90
51855;DHT22;37895;53.240;6.572;2023-12-20T01:45:23;6.40;99.90
51855;DHT22;37895;53.240;6.572;2023-12-20T01:47:48;6.40;99.90
51855;DHT22;37895;53.240;6.572;2023-12-20T01:50:14;7.10;99.90
51855;DHT22;37895;53.240;6.572;2023-12-20T01:52:42;6.40;99.90
51855;DHT22;37895;53.240;6.572;2023-12-20T01:55:09;6.40;99.90
51855;DHT22;37895;53.240;6.572;2023-12-20T01:57:40;6.50;99.90
51855;DHT22;37895;53.240;6.572;2023-12-20T02:00:07;7.00;99.90
51855;DHT22;37895;53.240;6.572;2023-12-20T02:02:36;6.30;99.90
51855;DHT22;37895;53.240;6.572;2023-12-20T02:05:05;6.40;99.90
51855;DHT22;37895;53.240;6.572;2023-12-20T02:07:31;6.40;99.90
51855;DHT22;37895;53.240;6.572;2023-12-20T02:09:56;6.50;99.90
51855;DHT22;37895;53.240;6.572;2023-12-20T02:12:22;6.40;99.90
51855;DHT22;37895;53.240;6.572;2023-12-20T02:14:48;6.30;99.90
51855;DHT22;37895;53.240;6.572;2023-12-20T02:17:15;6.30;99.90
51855;DHT22;37895;53.240;6.572;2023-12-20T02:19:40;6.20;99.90
51855;DHT22;37895;53.240;6.572;2023-12-20T02:22:12;6.30;99.90
51855;DHT22;37895;53.240;6.572;2023-12-20T02:24:38;6.20;99.90
51855;DHT22;37895;53.240;6.572;2023-12-20T02:27:06;6.20;99.90
51855;DHT22;37895;53.240;6.572;2023-12-20T02:29:33;6.10;99.90
51855;DHT22;37895;53.240;6.572;2023-12-20T02:31:59;6.10;99.90
51855;DHT22;37895;53.240;6.572;2023-12-20T02:34:24;6.10;99.90
51855;DHT22;37895;53.240;6.572;2023-12-20T02:36:50;6.10;99.90
51855;DHT22;37895;53.240;6.572;2023-12-20T02:39:16;6.00;99.90
51855;DHT22;37895;53.240;6.572;2023-12-20T02:41:42;6.00;99.90
51855;DHT22;37895;53.240;6.572;2023-12-20T02:44:07;6.10;99.90
51855;DHT22;37895;53.240;6.572;2023-12-20T02:46:33;6.10;99.90
51855;DHT22;37895;53.240;6.572;2023-12-20T02:48:58;6.20;99.90
51855;DHT22;37895;53.240;6.572;2023-12-20T02:51:24;6.30;99.90
51855;DHT22;37895;53.240;6.572;2023-12-20T02:53:50;6.30;99.90
51855;DHT22;37895;53.240;6.572;2023-12-20T02:56:15;6.30;99.90
51855;DHT22;37895;53.240;6.572;2023-12-20T02:58:41;6.40;99.90
51855;DHT22;37895;53.240;6.572;2023-12-20T03:01:06;6.40;99.90
51855;DHT22;37895;53.240;6.572;2023-12-20T03:03:32;6.50;99.90
51855;DHT22;37895;53.240;6.572;2023-12-20T03:05:58;6.30;99.90
51855;DHT22;37895;53.240;6.572;2023-12-20T03:08:24;6.70;99.90
51855;DHT22;37895;53.240;6.572;2023-12-20T03:10:50;6.30;99.90
51855;DHT22;37895;53.240;6.572;2023-12-20T03:13:15;6.30;99.90
51855;DHT22;37895;53.240;6.572;2023-12-20T03:15:41;6.20;99.90
51855;DHT22;37895;53.240;6.572;2023-12-20T03:18:07;6.20;99.90
51855;DHT22;37895;53.240;6.572;2023-12-20T03:20:32;6.20;99.90
51855;DHT22;37895;53.240;6.572;2023-12-20T03:23:01;6.30;99.90
51855;DHT22;37895;53.240;6.572;2023-12-20T03:25:26;7.10;99.90
51855;DHT22;37895;53.240;6.572;2023-12-20T03:27:53;6.50;99.90
51855;DHT22;37895;53.240;6.572;2023-12-20T03:30:18;6.60;99.90
51855;DHT22;37895;53.240;6.572;2023-12-20T03:32:44;6.60;99.90
51855;DHT22;37895;53.240;6.572;2023-12-20T03:35:10;6.60;99.90
51855;DHT22;37895;53.240;6.572;2023-12-20T03:37:36;6.60;99.90
51855;DHT22;37895;53.240;6.572;2023-12-20T03:40:02;6.50;99.90
51855;DHT22;37895;53.240;6.572;2023-12-20T03:42:28;6.30;99.90
51855;DHT22;37895;53.240;6.572;2023-12-20T03:44:53;6.20;99.90
51855;DHT22;37895;53.240;6.572;2023-12-20T03:47:19;6.20;99.90
51855;DHT22;37895;53.240;6.572;2023-12-20T03:49:44;6.00;99.90
51855;DHT22;37895;53.240;6.572;2023-12-20T03:52:10;6.00;99.90
51855;DHT22;37895;53.240;6.572;2023-12-20T03:54:36;6.00;99.90
51855;DHT22;37895;53.240;6.572;2023-12-20T03:57:01;6.00;99.90
51855;DHT22;37895;53.240;6.572;2023-12-20T03:59:27;6.00;99.90
51855;DHT22;37895;53.240;6.572;2023-12-20T04:01:52;6.20;99.90
51855;DHT22;37895;53.240;6.572;2023-12-20T04:04:19;6.60;99.90
51855;DHT22;37895;53.240;6.572;2023-12-20T04:06:44;5.90;99.90
51855;DHT22;37895;53.240;6.572;2023-12-20T04:09:10;5.90;99.90
51855;DHT22;37895;53.240;6.572;2023-12-20T04:11:36;5.90;99.90
51855;DHT22;37895;53.240;6.572;2023-12-20T04:14:02;5.90;99.90
51855;DHT22;37895;53.240;6.572;2023-12-20T04:16:28;6.00;99.90
51855;DHT22;37895;53.240;6.572;2023-12-20T04:18:53;5.90;99.90
51855;DHT22;37895;53.240;6.572;2023-12-20T04:21:19;6.10;99.90
51855;DHT22;37895;53.240;6.572;2023-12-20T04:23:45;6.00;99.90
51855;DHT22;37895;53.240;6.572;2023-12-20T04:26:10;6.10;99.90
51855;DHT22;37895;53.240;6.572;2023-12-20T04:28:36;6.10;99.90
51855;DHT22;37895;53.240;6.572;2023-12-20T04:31:01;6.10;99.90
51855;DHT22;37895;53.240;6.572;2023-12-20T04:33:27;6.20;99.90
51855;DHT22;37895;53.240;6.572;2023-12-20T04:35:53;6.30;99.90
51855;DHT22;37895;53.240;6.572;2023-12-20T04:38:18;7.00;99.90
51855;DHT22;37895;53.240;6.572;2023-12-20T04:40:44;6.40;99.90
51855;DHT22;37895;53.240;6.572;2023-12-20T04:43:09;6.50;99.90
51855;DHT22;37895;53.240;6.572;2023-12-20T04:45:35;6.50;99.90
51855;DHT22;37895;53.240;6.572;2023-12-20T04:48:01;6.60;99.90
51855;DHT22;37895;53.240;6.572;2023-12-20T04:50:27;6.60;99.90
51855;DHT22;37895;53.240;6.572;2023-12-20T04:52:53;6.60;99.90
51855;DHT22;37895;53.240;6.572;2023-12-20T04:55:19;6.70;99.90
51855;DHT22;37895;53.240;6.572;2023-12-20T04:57:44;6.70;99.90
51855;DHT22;37895;53.240;6.572;2023-12-20T05:00:10;6.80;99.90
51855;DHT22;37895;53.240;6.572;2023-12-20T05:02:36;6.80;99.90
51855;DHT22;37895;53.240;6.572;2023-12-20T05:05:02;6.90;99.90
51855;DHT22;37895;53.240;6.572;2023-12-20T05:07:28;6.90;99.90
51855;DHT22;37895;53.240;6.572;2023-12-20T05:09:53;6.90;99.90
51855;DHT22;37895;53.240;6.572;2023-12-20T05:12:19;6.90;99.90
51855;DHT22;37895;53.240;6.572;2023-12-20T05:14:45;7.00;99.90
51855;DHT22;37895;53.240;6.572;2023-12-20T05:17:11;7.00;99.90
51855;DHT22;37895;53.240;6.572;2023-12-20T05:19:37;7.00;99.90
51855;DHT22;37895;53.240;6.572;2023-12-20T05:22:02;7.10;99.90
51855;DHT22;37895;53.240;6.572;2023-12-20T05:24:28;7.00;99.90
51855;DHT22;37895;53.240;6.572;2023-12-20T05:26:54;7.10;99.90
51855;DHT22;37895;53.240;6.572;2023-12-20T05:29:20;7.10;99.90
51855;DHT22;37895;53.240;6.572;2023-12-20T05:31:46;7.30;99.90
51855;DHT22;37895;53.240;6.572;2023-12-20T05:34:12;7.10;99.90
51855;DHT22;37895;53.240;6.572;2023-12-20T05:36:37;7.20;99.90
51855;DHT22;37895;53.240;6.572;2023-12-20T05:39:04;7.20;99.90
51855;DHT22;37895;53.240;6.572;2023-12-20T05:41:30;7.30;99.90
51855;DHT22;37895;53.240;6.572;2023-12-20T05:43:56;7.30;99.90
51855;DHT22;37895;53.240;6.572;2023-12-20T05:46:23;7.30;99.90
51855;DHT22;37895;53.240;6.572;2023-12-20T05:48:49;7.30;99.90
51855;DHT22;37895;53.240;6.572;2023-12-20T05:51:17;7.30;99.90
51855;DHT22;37895;53.240;6.572;2023-12-20T05:53:42;7.80;99.90
51855;DHT22;37895;53.240;6.572;2023-12-20T05:56:09;7.30;99.90
51855;DHT22;37895;53.240;6.572;2023-12-20T05:58:35;7.30;99.90
51855;DHT22;37895;53.240;6.572;2023-12-20T06:01:04;7.60;99.90
51855;DHT22;37895;53.240;6.572;2023-12-20T06:03:29;7.50;99.90
51855;DHT22;37895;53.240;6.572;2023-12-20T06:05:55;7.30;99.90
51855;DHT22;37895;53.240;6.572;2023-12-20T06:08:21;7.40;99.90
51855;DHT22;37895;53.240;6.572;2023-12-20T06:10:46;7.40;99.90
51855;DHT22;37895;53.240;6.572;2023-12-20T06:13:12;7.40;99.90
51855;DHT22;37895;53.240;6.572;2023-12-20T06:15:38;7.50;99.90
51855;DHT22;37895;53.240;6.572;2023-12-20T06:18:05;7.50;99.90
51855;DHT22;37895;53.240;6.572;2023-12-20T06:20:31;7.60;99.90
51855;DHT22;37895;53.240;6.572;2023-12-20T06:22:57;7.70;99.90
51855;DHT22;37895;53.240;6.572;2023-12-20T06:25:23;7.60;99.90
51855;DHT22;37895;53.240;6.572;2023-12-20T06:27:48;7.60;99.90
51855;DHT22;37895;53.240;6.572;2023-12-20T06:30:15;7.60;99.90
51855;DHT22;37895;53.240;6.572;2023-12-20T06:32:40;7.70;99.90
51855;DHT22;37895;53.240;6.572;2023-12-20T06:35:10;7.70;99.90
51855;DHT22;37895;53.240;6.572;2023-12-20T06:37:36;7.80;99.90
51855;DHT22;37895;53.240;6.572;2023-12-20T06:40:02;7.70;99.90
51855;DHT22;37895;53.240;6.572;2023-12-20T06:42:27;7.70;99.90
51855;DHT22;37895;53.240;6.572;2023-12-20T06:44:53;7.70;99.90
51855;DHT22;37895;53.240;6.572;2023-12-20T06:47:18;7.70;99.90
51855;DHT22;37895;53.240;6.572;2023-12-20T06:49:44;7.70;99.90
51855;DHT22;37895;53.240;6.572;2023-12-20T06:52:10;7.70;99.90
51855;DHT22;37895;53.240;6.572;2023-12-20T06:54:35;7.70;99.90
51855;DHT22;37895;53.240;6.572;2023-12-20T06:57:01;7.80;99.90
51855;DHT22;37895;53.240;6.572;2023-12-20T06:59:29;7.80;99.90
51855;DHT22;37895;53.240;6.572;2023-12-20T07:01:54;7.80;99.90
51855;DHT22;37895;53.240;6.572;2023-12-20T07:04:20;7.70;99.90
51855;DHT22;37895;53.240;6.572;2023-12-20T07:06:47;7.70;99.90
51855;DHT22;37895;53.240;6.572;2023-12-20T07:09:13;7.90;99.90
51855;DHT22;37895;53.240;6.572;2023-12-20T07:11:39;7.70;99.90
51855;DHT22;37895;53.240;6.572;2023-12-20T07:14:05;7.90;99.90
51855;DHT22;37895;53.240;6.572;2023-12-20T07:16:30;8.00;99.90
51855;DHT22;37895;53.240;6.572;2023-12-20T07:18:56;7.80;99.90
51855;DHT22;37895;53.240;6.572;2023-12-20T07:21:23;7.90;99.90
51855;DHT22;37895;53.240;6.572;2023-12-20T07:23:48;7.90;99.90
51855;DHT22;37895;53.240;6.572;2023-12-20T07:26:14;8.50;99.90
51855;DHT22;37895;53.240;6.572;2023-12-20T07:28:40;8.20;99.90
51855;DHT22;37895;53.240;6.572;2023-12-20T07:31:06;8.00;99.90
51855;DHT22;37895;53.240;6.572;2023-12-20T07:33:31;8.00;99.90
51855;DHT22;37895;53.240;6.572;2023-12-20T07:35:59;8.00;99.90
51855;DHT22;37895;53.240;6.572;2023-12-20T07:38:24;8.10;99.90
51855;DHT22;37895;53.240;6.572;2023-12-20T07:40:50;8.00;99.90
51855;DHT22;37895;53.240;6.572;2023-12-20T07:43:16;8.10;99.90
51855;DHT22;37895;53.240;6.572;2023-12-20T07:45:42;8.10;99.90
51855;DHT22;37895;53.240;6.572;2023-12-20T07:48:07;8.10;99.90
51855;DHT22;37895;53.240;6.572;2023-12-20T07:50:34;8.10;99.90
51855;DHT22;37895;53.240;6.572;2023-12-20T07:52:59;8.10;99.90
51855;DHT22;37895;53.240;6.572;2023-12-20T07:55:26;8.10;99.90
51855;DHT22;37895;53.240;6.572;2023-12-20T07:57:52;8.20;99.90
51855;DHT22;37895;53.240;6.572;2023-12-20T08:00:18;8.10;99.90
51855;DHT22;37895;53.240;6.572;2023-12-20T08:02:44;8.20;99.90
51855;DHT22;37895;53.240;6.572;2023-12-20T08:05:10;8.10;99.90
51855;DHT22;37895;53.240;6.572;2023-12-20T08:07:36;8.10;99.90
51855;DHT22;37895;53.240;6.572;2023-12-20T08:10:01;8.10;99.90
51855;DHT22;37895;53.240;6.572;2023-12-20T08:12:27;8.10;99.90
51855;DHT22;37895;53.240;6.572;2023-12-20T08:14:54;8.20;99.90
51855;DHT22;37895;53.240;6.572;2023-12-20T08:17:20;8.10;99.90
51855;DHT22;37895;53.240;6.572;2023-12-20T08:19:45;8.10;99.90
51855;DHT22;37895;53.240;6.572;2023-12-20T08:22:11;8.10;99.90
51855;DHT22;37895;53.240;6.572;2023-12-20T08:24:37;8.20;99.90
51855;DHT22;37895;53.240;6.572;2023-12-20T08:27:03;8.20;99.90
51855;DHT22;37895;53.240;6.572;2023-12-20T08:29:29;8.30;99.90
51855;DHT22;37895;53.240;6.572;2023-12-20T08:31:55;8.40;99.90
51855;DHT22;37895;53.240;6.572;2023-12-20T08:34:21;8.40;99.90
51855;DHT22;37895;53.240;6.572;2023-12-20T08:36:47;8.20;99.90
51855;DHT22;37895;53.240;6.572;2023-12-20T08:39:13;7.30;99.90
51855;DHT22;37895;53.240;6.572;2023-12-20T08:41:38;6.80;99.90
51855;DHT22;37895;53.240;6.572;2023-12-20T08:44:04;6.10;99.90
51855;DHT22;37895;53.240;6.572;2023-12-20T08:46:30;5.90;99.90
51855;DHT22;37895;53.240;6.572;2023-12-20T08:48:56;5.70;99.90
51855;DHT22;37895;53.240;6.572;2023-12-20T08:51:21;5.60;99.90
51855;DHT22;37895;53.240;6.572;2023-12-20T08:53:49;5.50;99.90
51855;DHT22;37895;53.240;6.572;2023-12-20T08:56:15;5.50;99.90
51855;DHT22;37895;53.240;6.572;2023-12-20T08:58:40;5.40;99.90
51855;DHT22;37895;53.240;6.572;2023-12-20T09:01:07;5.30;99.90
51855;DHT22;37895;53.240;6.572;2023-12-20T09:03:33;5.40;99.90
51855;DHT22;37895;53.240;6.572;2023-12-20T09:05:58;5.30;99.90
51855;DHT22;37895;53.240;6.572;2023-12-20T09:08:24;5.30;99.90
51855;DHT22;37895;53.240;6.572;2023-12-20T09:10:50;5.30;99.90
51855;DHT22;37895;53.240;6.572;2023-12-20T09:13:15;5.30;99.90
51855;DHT22;37895;53.240;6.572;2023-12-20T09:15:41;5.40;99.90
51855;DHT22;37895;53.240;6.572;2023-12-20T09:18:07;5.40;99.90
51855;DHT22;37895;53.240;6.572;2023-12-20T09:20:33;5.40;99.90
51855;DHT22;37895;53.240;6.572;2023-12-20T09:22:59;5.40;99.90
51855;DHT22;37895;53.240;6.572;2023-12-20T09:25:25;5.60;99.90
51855;DHT22;37895;53.240;6.572;2023-12-20T09:27:51;5.50;99.90
51855;DHT22;37895;53.240;6.572;2023-12-20T09:30:18;6.00;99.90
51855;DHT22;37895;53.240;6.572;2023-12-20T09:32:44;5.40;99.90
51855;DHT22;37895;53.240;6.572;2023-12-20T09:35:10;5.30;99.90
51855;DHT22;37895;53.240;6.572;2023-12-20T09:37:36;5.50;99.90
51855;DHT22;37895;53.240;6.572;2023-12-20T09:40:02;5.40;99.90
51855;DHT22;37895;53.240;6.572;2023-12-20T09:43:02;5.30;99.90
51855;DHT22;37895;53.240;6.572;2023-12-20T09:45:30;5.30;99.90
51855;DHT22;37895;53.240;6.572;2023-12-20T09:47:57;5.30;99.90
51855;DHT22;37895;53.240;6.572;2023-12-20T09:50:23;5.30;99.90
51855;DHT22;37895;53.240;6.572;2023-12-20T09:52:53;5.30;99.90
51855;DHT22;37895;53.240;6.572;2023-12-20T09:55:20;6.00;99.90
51855;DHT22;37895;53.240;6.572;2023-12-20T09:57:49;5.30;99.90
51855;DHT22;37895;53.240;6.572;2023-12-20T10:00:15;5.30;99.90
51855;DHT22;37895;53.240;6.572;2023-12-20T10:02:59;5.40;99.90
51855;DHT22;37895;53.240;6.572;2023-12-20T10:05:28;5.40;99.90
51855;DHT22;37895;53.240;6.572;2023-12-20T10:07:53;5.40;99.90
51855;DHT22;37895;53.240;6.572;2023-12-20T10:10:19;5.60;99.90
51855;DHT22;37895;53.240;6.572;2023-12-20T10:13:05;5.70;99.90
51855;DHT22;37895;53.240;6.572;2023-12-20T10:15:35;5.90;99.90
51855;DHT22;37895;53.240;6.572;2023-12-20T10:18:01;6.00;99.90
51855;DHT22;37895;53.240;6.572;2023-12-20T10:20:28;6.10;99.90
51855;DHT22;37895;53.240;6.572;2023-12-20T10:22:58;6.10;99.90
51855;DHT22;37895;53.240;6.572;2023-12-20T10:25:24;6.20;99.90
51855;DHT22;37895;53.240;6.572;2023-12-20T10:28:08;6.50;99.90
51855;DHT22;37895;53.240;6.572;2023-12-20T10:30:34;6.50;99.90
51855;DHT22;37895;53.240;6.572;2023-12-20T10:32:59;6.50;99.90
51855;DHT22;37895;53.240;6.572;2023-12-20T10:35:25;6.60;99.90
51855;DHT22;37895;53.240;6.572;2023-12-20T10:37:55;6.70;99.90
51855;DHT22;37895;53.240;6.572;2023-12-20T10:40:21;6.70;99.90
51855;DHT22;37895;53.240;6.572;2023-12-20T10:42:47;6.70;99.90
51855;DHT22;37895;53.240;6.572;2023-12-20T10:45:13;6.70;99.90
51855;DHT22;37895;53.240;6.572;2023-12-20T10:47:39;6.70;99.90
51855;DHT22;37895;53.240;6.572;2023-12-20T10:50:06;6.70;99.90
51855;DHT22;37895;53.240;6.572;2023-12-20T10:52:32;6.70;99.90
51855;DHT22;37895;53.240;6.572;2023-12-20T10:54:59;6.70;99.90
51855;DHT22;37895;53.240;6.572;2023-12-20T10:57:27;6.70;99.90
51855;DHT22;37895;53.240;6.572;2023-12-20T10:59:54;6.70;99.90
51855;DHT22;37895;53.240;6.572;2023-12-20T11:02:20;6.60;99.90
51855;DHT22;37895;53.240;6.572;2023-12-20T11:05:14;6.60;99.90
51855;DHT22;37895;53.240;6.572;2023-12-20T11:07:40;6.70;99.90
51855;DHT22;37895;53.240;6.572;2023-12-20T11:10:20;6.90;99.90
51855;DHT22;37895;53.240;6.572;2023-12-20T11:12:48;6.80;99.90
51855;DHT22;37895;53.240;6.572;2023-12-20T11:15:16;6.80;99.90
51855;DHT22;37895;53.240;6.572;2023-12-20T11:17:44;6.90;99.90
51855;DHT22;37895;53.240;6.572;2023-12-20T11:20:10;6.80;99.90
51855;DHT22;37895;53.240;6.572;2023-12-20T11:22:37;6.90;99.90
51855;DHT22;37895;53.240;6.572;2023-12-20T11:25:08;6.90;99.90
51855;DHT22;37895;53.240;6.572;2023-12-20T11:27:35;6.80;99.90
51855;DHT22;37895;53.240;6.572;2023-12-20T11:30:03;6.90;99.90
51855;DHT22;37895;53.240;6.572;2023-12-20T11:32:35;6.90;99.90
51855;DHT22;37895;53.240;6.572;2023-12-20T11:35:17;6.90;99.90
51855;DHT22;37895;53.240;6.572;2023-12-20T11:37:45;6.90;99.90
51855;DHT22;37895;53.240;6.572;2023-12-20T11:40:16;7.00;99.90
51855;DHT22;37895;53.240;6.572;2023-12-20T11:42:48;7.00;99.90
51855;DHT22;37895;53.240;6.572;2023-12-20T11:45:15;7.10;99.90
51855;DHT22;37895;53.240;6.572;2023-12-20T11:47:51;7.20;99.90
51855;DHT22;37895;53.240;6.572;2023-12-20T11:50:20;7.20;99.90
51855;DHT22;37895;53.240;6.572;2023-12-20T11:52:46;7.20;99.90
51855;DHT22;37895;53.240;6.572;2023-12-20T11:55:12;7.20;99.90
51855;DHT22;37895;53.240;6.572;2023-12-20T11:57:38;7.20;99.90
51855;DHT22;37895;53.240;6.572;2023-12-20T12:00:04;7.20;99.90
51855;DHT22;37895;53.240;6.572;2023-12-20T12:02:31;7.30;99.90
51855;DHT22;37895;53.240;6.572;2023-12-20T12:04:57;7.30;99.90
51855;DHT22;37895;53.240;6.572;2023-12-20T12:07:24;7.40;99.90
51855;DHT22;37895;53.240;6.572;2023-12-20T12:09:50;7.40;99.90
51855;DHT22;37895;53.240;6.572;2023-12-20T12:12:16;7.40;99.90
51855;DHT22;37895;53.240;6.572;2023-12-20T12:14:44;7.40;99.90
51855;DHT22;37895;53.240;6.572;2023-12-20T12:17:11;7.30;99.90
51855;DHT22;37895;53.240;6.572;2023-12-20T12:19:37;7.40;99.90
51855;DHT22;37895;53.240;6.572;2023-12-20T12:22:13;7.40;99.90
51855;DHT22;37895;53.240;6.572;2023-12-20T12:24:43;7.50;99.90
51855;DHT22;37895;53.240;6.572;2023-12-20T12:27:10;7.40;99.90
51855;DHT22;37895;53.240;6.572;2023-12-20T12:29:36;7.50;99.90
51855;DHT22;37895;53.240;6.572;2023-12-20T12:32:09;7.50;99.90
51855;DHT22;37895;53.240;6.572;2023-12-20T12:34:35;7.40;99.90
51855;DHT22;37895;53.240;6.572;2023-12-20T12:37:01;7.50;99.90
51855;DHT22;37895;53.240;6.572;2023-12-20T12:39:27;7.50;99.90
51855;DHT22;37895;53.240;6.572;2023-12-20T12:41:55;7.70;99.90
51855;DHT22;37895;53.240;6.572;2023-12-20T12:44:21;7.70;99.90
51855;DHT22;37895;53.240;6.572;2023-12-20T12:46:49;7.50;99.90
51855;DHT22;37895;53.240;6.572;2023-12-20T12:49:20;7.50;99.90
51855;DHT22;37895;53.240;6.572;2023-12-20T12:51:47;7.50;99.90
51855;DHT22;37895;53.240;6.572;2023-12-20T12:54:12;7.60;99.90
51855;DHT22;37895;53.240;6.572;2023-12-20T12:56:39;7.80;99.90
51855;DHT22;37895;53.240;6.572;2023-12-20T12:59:05;8.00;99.90
51855;DHT22;37895;53.240;6.572;2023-12-20T13:01:31;7.80;99.90
51855;DHT22;37895;53.240;6.572;2023-12-20T13:03:57;7.80;99.90
51855;DHT22;37895;53.240;6.572;2023-12-20T13:06:22;7.80;99.90
51855;DHT22;37895;53.240;6.572;2023-12-20T13:08:48;7.80;99.90
51855;DHT22;37895;53.240;6.572;2023-12-20T13:11:14;7.90;99.90
51855;DHT22;37895;53.240;6.572;2023-12-20T13:13:39;7.70;99.90
51855;DHT22;37895;53.240;6.572;2023-12-20T13:16:05;7.80;99.90
51855;DHT22;37895;53.240;6.572;2023-12-20T13:18:31;7.70;99.90
51855;DHT22;37895;53.240;6.572;2023-12-20T13:20:57;7.70;99.90
51855;DHT22;37895;53.240;6.572;2023-12-20T13:23:22;7.70;99.90
51855;DHT22;37895;53.240;6.572;2023-12-20T13:25:48;7.80;99.90
51855;DHT22;37895;53.240;6.572;2023-12-20T13:28:14;7.70;99.90
51855;DHT22;37895;53.240;6.572;2023-12-20T13:30:40;7.70;99.90
51855;DHT22;37895;53.240;6.572;2023-12-20T13:33:06;7.70;99.90
51855;DHT22;37895;53.240;6.572;2023-12-20T13:35:32;7.70;99.90
51855;DHT22;37895;53.240;6.572;2023-12-20T13:38:00;7.70;99.90
51855;DHT22;37895;53.240;6.572;2023-12-20T13:40:26;7.70;99.90
51855;DHT22;37895;53.240;6.572;2023-12-20T13:42:51;7.60;99.90
51855;DHT22;37895;53.240;6.572;2023-12-20T13:45:17;7.60;99.90
51855;DHT22;37895;53.240;6.572;2023-12-20T13:47:43;8.10;99.90
51855;DHT22;37895;53.240;6.572;2023-12-20T13:50:08;7.50;99.90
51855;DHT22;37895;53.240;6.572;2023-12-20T13:52:35;7.50;99.90
51855;DHT22;37895;53.240;6.572;2023-12-20T13:55:01;7.50;99.90
51855;DHT22;37895;53.240;6.572;2023-12-20T13:57:26;7.60;99.90
51855;DHT22;37895;53.240;6.572;2023-12-20T13:59:54;7.40;99.90
51855;DHT22;37895;53.240;6.572;2023-12-20T14:02:19;7.40;99.90
51855;DHT22;37895;53.240;6.572;2023-12-20T14:04:45;7.40;99.90
51855;DHT22;37895;53.240;6.572;2023-12-20T14:07:11;7.40;99.90
51855;DHT22;37895;53.240;6.572;2023-12-20T14:09:36;7.30;99.90
51855;DHT22;37895;53.240;6.572;2023-12-20T14:12:02;7.30;99.90
51855;DHT22;37895;53.240;6.572;2023-12-20T14:14:28;7.20;99.90
51855;DHT22;37895;53.240;6.572;2023-12-20T14:16:53;7.20;99.90
51855;DHT22;37895;53.240;6.572;2023-12-20T14:19:19;7.10;99.90
51855;DHT22;37895;53.240;6.572;2023-12-20T14:21:45;7.10;99.90
51855;DHT22;37895;53.240;6.572;2023-12-20T14:24:13;7.10;99.90
51855;DHT22;37895;53.240;6.572;2023-12-20T14:26:43;7.10;99.90
51855;DHT22;37895;53.240;6.572;2023-12-20T14:29:08;7.00;99.90
51855;DHT22;37895;53.240;6.572;2023-12-20T14:31:34;7.00;99.90
51855;DHT22;37895;53.240;6.572;2023-12-20T14:34:00;7.00;99.90
51855;DHT22;37895;53.240;6.572;2023-12-20T14:36:29;7.00;99.90
51855;DHT22;37895;53.240;6.572;2023-12-20T14:38:56;7.10;99.90
51855;DHT22;37895;53.240;6.572;2023-12-20T14:41:22;7.10;99.90
51855;DHT22;37895;53.240;6.572;2023-12-20T14:43:50;7.00;99.90
51855;DHT22;37895;53.240;6.572;2023-12-20T14:46:17;7.00;99.90
51855;DHT22;37895;53.240;6.572;2023-12-20T14:48:42;7.00;99.90
51855;DHT22;37895;53.240;6.572;2023-12-20T14:51:08;6.90;99.90
51855;DHT22;37895;53.240;6.572;2023-12-20T14:53:34;6.90;99.90
51855;DHT22;37895;53.240;6.572;2023-12-20T14:56:05;6.80;99.90
51855;DHT22;37895;53.240;6.572;2023-12-20T14:58:31;6.80;99.90
51855;DHT22;37895;53.240;6.572;2023-12-20T15:00:57;6.70;99.90
51855;DHT22;37895;53.240;6.572;2023-12-20T15:03:23;6.70;99.90
51855;DHT22;37895;53.240;6.572;2023-12-20T15:05:49;6.70;99.90
51855;DHT22;37895;53.240;6.572;2023-12-20T15:08:15;6.70;99.90
51855;DHT22;37895;53.240;6.572;2023-12-20T15:10:41;6.60;99.90
51855;DHT22;37895;53.240;6.572;2023-12-20T15:13:06;6.60;99.90
51855;DHT22;37895;53.240;6.572;2023-12-20T15:15:32;6.60;99.90
51855;DHT22;37895;53.240;6.572;2023-12-20T15:17:59;6.70;99.90
51855;DHT22;37895;53.240;6.572;2023-12-20T15:20:25;6.70;99.90
51855;DHT22;37895;53.240;6.572;2023-12-20T15:22:50;6.70;99.90
51855;DHT22;37895;53.240;6.572;2023-12-20T15:25:16;6.80;99.90
51855;DHT22;37895;53.240;6.572;2023-12-20T15:27:50;6.60;99.90
51855;DHT22;37895;53.240;6.572;2023-12-20T15:30:19;6.70;99.90
51855;DHT22;37895;53.240;6.572;2023-12-20T15:32:45;6.80;99.90
51855;DHT22;37895;53.240;6.572;2023-12-20T15:35:11;6.60;99.90
51855;DHT22;37895;53.240;6.572;2023-12-20T15:37:38;6.80;99.90
51855;DHT22;37895;53.240;6.572;2023-12-20T15:40:04;6.60;99.90